Time;durP1;ratioP1;P1;durP2;ratioP2;P2;SDS_P1;SDS_P2;PMS_P1;PMS_P2;Temp;Humidity;BMP_temperature;BMP_pressure;BME280_temperature;BME280_humidity;BME280_pressure;Samples;Min_cycle;Max_cycle;Signal;HPM_P1;HPM_P2
2022/03/11 00:00:20;;;;;;;29.50;27.50;;;3.90;59.00;;;;;;5096017;28;20307;-71
2022/03/11 00:02:47;;;;;;;27.10;25.33;;;3.90;59.20;;;;;;5096205;28;20221;-71
2022/03/11 00:05:14;;;;;;;26.88;24.98;;;3.90;59.70;;;;;;5096054;28;20197;-71
2022/03/11 00:07:41;;;;;;;26.35;24.45;;;3.80;61.50;;;;;;5095995;28;20201;-71
2022/03/11 00:10:09;;;;;;;26.13;24.40;;;3.80;60.60;;;;;;5095836;28;20211;-71
2022/03/11 00:12:37;;;;;;;26.15;24.45;;;3.80;59.90;;;;;;5095890;28;20218;-71
2022/03/11 00:15:05;;;;;;;26.98;25.17;;;3.70;59.90;;;;;;5096088;28;20243;-71
2022/03/11 00:17:34;;;;;;;27.27;25.48;;;3.70;59.90;;;;;;5096048;28;20197;-70
2022/03/11 00:20:01;;;;;;;27.40;25.58;;;3.60;62.60;;;;;;5095638;28;20239;-70
2022/03/11 00:22:28;;;;;;;26.83;25.08;;;3.50;63.70;;;;;;5095667;28;20221;-71
2022/03/11 00:24:55;;;;;;;27.02;25.23;;;3.50;62.40;;;;;;5095838;28;20200;-71
2022/03/11 00:27:22;;;;;;;27.48;25.50;;;3.50;61.70;;;;;;5095703;28;20205;-70
2022/03/11 00:29:49;;;;;;;27.08;25.27;;;3.50;60.90;;;;;;5095643;28;20210;-71
2022/03/11 00:32:16;;;;;;;27.02;25.33;;;3.50;60.70;;;;;;5095569;28;20305;-71
2022/03/11 00:34:44;;;;;;;27.25;25.35;;;3.40;61.50;;;;;;5094957;28;20220;-71
2022/03/11 00:37:11;;;;;;;27.67;25.70;;;3.40;61.70;;;;;;5095393;28;20224;-71
2022/03/11 00:39:38;;;;;;;26.67;24.88;;;3.30;62.00;;;;;;5095134;28;20203;-71
2022/03/11 00:42:05;;;;;;;27.30;25.55;;;3.40;61.80;;;;;;5095447;28;20237;-71
2022/03/11 00:44:32;;;;;;;26.80;25.00;;;3.30;62.50;;;;;;5095030;28;20203;-71
2022/03/11 00:46:59;;;;;;;28.67;26.58;;;3.40;62.00;;;;;;5095298;28;20197;-71
2022/03/11 00:49:25;;;;;;;28.42;26.27;;;3.30;65.30;;;;;;5095120;28;20651;-71
2022/03/11 00:51:54;;;;;;;27.83;25.80;;;3.20;64.80;;;;;;5095395;28;20262;-71
2022/03/11 00:54:21;;;;;;;27.40;25.48;;;3.20;64.20;;;;;;5095058;28;20726;-71
2022/03/11 00:56:47;;;;;;;27.27;25.45;;;3.10;63.80;;;;;;5095044;28;20255;-71
2022/03/11 00:59:15;;;;;;;27.40;25.50;;;3.10;62.90;;;;;;5094780;28;20283;-71
2022/03/11 01:01:42;;;;;;;27.00;25.10;;;3.10;64.20;;;;;;5095128;28;20302;-71
2022/03/11 01:04:09;;;;;;;26.80;24.90;;;3.00;66.00;;;;;;5094995;28;20289;-71
2022/03/11 01:06:36;;;;;;;27.02;25.20;;;3.00;66.70;;;;;;5094643;28;20832;-71
2022/03/11 01:09:05;;;;;;;26.60;25.00;;;3.00;65.00;;;;;;5094919;28;20672;-71
2022/03/11 01:11:31;;;;;;;26.77;25.08;;;3.00;64.30;;;;;;5094618;28;20218;-71
2022/03/11 01:13:59;;;;;;;26.13;24.42;;;3.00;64.10;;;;;;5094734;28;20231;-71
2022/03/11 01:16:26;;;;;;;27.27;25.40;;;3.00;64.40;;;;;;5094809;28;20288;-71
2022/03/11 01:18:52;;;;;;;27.48;25.67;;;3.00;64.50;;;;;;5094615;28;20567;-71
2022/03/11 01:21:19;;;;;;;28.23;26.02;;;2.90;64.90;;;;;;5094347;28;20225;-71
2022/03/11 01:23:46;;;;;;;27.63;25.80;;;2.90;65.90;;;;;;5094584;28;20235;-71
2022/03/11 01:26:16;;;;;;;26.92;25.05;;;3.00;64.90;;;;;;5094499;28;20667;-71
2022/03/11 01:28:44;;;;;;;28.92;26.83;;;2.90;65.30;;;;;;5094445;28;20202;-71
2022/03/11 01:31:12;;;;;;;27.67;25.77;;;2.90;65.20;;;;;;5094152;28;20201;-71
2022/03/11 01:33:39;;;;;;;28.50;26.50;;;2.80;65.20;;;;;;5093810;28;20217;-71
2022/03/11 01:36:06;;;;;;;29.10;27.00;;;2.80;65.60;;;;;;5094313;28;20820;-71
2022/03/11 01:38:34;;;;;;;28.75;26.75;;;2.80;65.90;;;;;;5094255;28;20240;-71
2022/03/11 01:41:01;;;;;;;28.42;26.38;;;2.80;65.60;;;;;;5094280;28;20197;-71
2022/03/11 01:43:29;;;;;;;29.00;26.90;;;2.70;66.20;;;;;;5094315;28;20551;-71
2022/03/11 01:45:58;;;;;;;27.27;25.33;;;2.70;66.50;;;;;;5094618;28;20680;-71
2022/03/11 01:48:25;;;;;;;29.30;26.90;;;2.70;66.20;;;;;;5093408;28;20631;-71
2022/03/11 01:50:53;;;;;;;27.75;25.67;;;2.70;66.10;;;;;;5094326;28;20680;-71
2022/03/11 01:53:20;;;;;;;30.25;27.77;;;2.60;65.90;;;;;;5094320;28;20591;-71
2022/03/11 01:55:47;;;;;;;28.42;26.33;;;2.60;66.10;;;;;;5094832;28;20209;-71
2022/03/11 01:58:15;;;;;;;30.65;28.45;;;2.50;66.50;;;;;;5094692;28;20202;-71
2022/03/11 02:00:43;;;;;;;28.85;26.73;;;2.50;67.00;;;;;;5094241;28;20192;-71
2022/03/11 02:03:10;;;;;;;29.98;27.83;;;2.40;67.80;;;;;;5093812;28;20303;-71
2022/03/11 02:05:37;;;;;;;28.70;26.65;;;2.40;67.80;;;;;;5093768;28;20724;-71
2022/03/11 02:08:03;;;;;;;30.08;27.67;;;2.40;67.70;;;;;;5093800;28;20205;-71
2022/03/11 02:10:30;;;;;;;30.42;28.25;;;2.40;68.10;;;;;;5093584;28;20564;-71
2022/03/11 02:12:58;;;;;;;30.55;28.05;;;2.40;69.00;;;;;;5093758;28;20312;-71
2022/03/11 02:15:25;;;;;;;30.73;28.52;;;2.40;68.50;;;;;;5093407;28;20695;-71
2022/03/11 02:17:53;;;;;;;30.48;28.27;;;2.40;69.70;;;;;;5093414;28;20234;-71
2022/03/11 02:20:20;;;;;;;30.42;28.35;;;2.40;69.20;;;;;;5093332;28;20300;-71
2022/03/11 02:22:50;;;;;;;31.33;29.00;;;2.40;68.40;;;;;;5093372;28;20222;-71
2022/03/11 02:25:19;;;;;;;30.67;28.45;;;2.40;68.70;;;;;;5093476;28;20195;-71
2022/03/11 02:27:47;;;;;;;30.67;28.38;;;2.40;68.60;;;;;;5093448;28;20715;-71
2022/03/11 02:30:16;;;;;;;30.85;28.45;;;2.30;69.70;;;;;;5093070;28;20200;-71
2022/03/11 02:32:44;;;;;;;30.63;28.13;;;2.30;69.60;;;;;;5093530;28;20232;-71
2022/03/11 02:35:11;;;;;;;32.00;29.70;;;2.30;69.40;;;;;;5093047;28;20220;-71
2022/03/11 02:37:39;;;;;;;33.10;29.60;;;2.30;69.20;;;;;;5093170;28;20203;-71
2022/03/11 02:40:07;;;;;;;31.27;28.70;;;2.30;69.20;;;;;;5092982;28;20270;-71
2022/03/11 02:42:35;;;;;;;32.35;30.05;;;2.20;69.30;;;;;;5093000;28;20221;-71
2022/03/11 02:45:04;;;;;;;33.55;30.95;;;2.10;70.20;;;;;;5092839;28;20229;-71
2022/03/11 02:47:31;;;;;;;32.13;29.58;;;2.20;70.20;;;;;;5092996;28;20287;-71
2022/03/11 02:49:58;;;;;;;31.23;29.02;;;2.30;69.80;;;;;;5092602;28;20666;-71
2022/03/11 02:52:25;;;;;;;32.35;29.83;;;2.20;70.60;;;;;;5092950;28;20577;-71
2022/03/11 02:54:53;;;;;;;31.63;29.33;;;2.10;70.40;;;;;;5092783;28;20577;-71
2022/03/11 02:57:20;;;;;;;32.75;30.23;;;2.10;70.40;;;;;;5092916;28;20283;-71
2022/03/11 02:59:48;;;;;;;33.53;30.60;;;2.10;70.60;;;;;;5092376;28;20206;-71
2022/03/11 03:02:15;;;;;;;34.17;31.13;;;2.10;70.40;;;;;;5092924;28;20221;-71
2022/03/11 03:04:43;;;;;;;34.25;31.65;;;2.10;70.60;;;;;;5092871;28;20192;-71
2022/03/11 03:07:11;;;;;;;34.08;31.38;;;2.10;70.60;;;;;;5092715;28;20204;-71
2022/03/11 03:09:41;;;;;;;36.00;33.00;;;2.10;70.60;;;;;;5092578;28;20662;-71
2022/03/11 03:12:10;;;;;;;36.33;32.67;;;2.10;70.60;;;;;;5092593;28;20214;-71
2022/03/11 03:14:37;;;;;;;36.80;33.88;;;2.00;71.00;;;;;;5092528;28;20227;-71
2022/03/11 03:17:06;;;;;;;37.08;33.88;;;2.00;71.30;;;;;;5093045;28;20670;-71
2022/03/11 03:19:35;;;;;;;37.13;33.63;;;2.00;71.50;;;;;;5092355;28;20205;-70
2022/03/11 03:22:02;;;;;;;38.75;35.47;;;1.90;71.70;;;;;;5092507;28;20217;-71
2022/03/11 03:24:29;;;;;;;36.83;33.80;;;1.90;71.70;;;;;;5092432;28;20289;-71
2022/03/11 03:26:56;;;;;;;36.30;33.10;;;1.90;71.70;;;;;;5092553;28;20194;-71
2022/03/11 03:29:24;;;;;;;36.90;33.63;;;2.00;71.50;;;;;;5092408;28;20288;-71
2022/03/11 03:31:57;;;;;;;37.75;34.53;;;2.00;71.50;;;;;;5092580;28;20308;-71
2022/03/11 03:34:27;;;;;;;37.15;33.85;;;1.90;71.60;;;;;;5092447;28;20803;-71
2022/03/11 03:36:54;;;;;;;37.58;34.60;;;1.90;72.10;;;;;;5092452;28;20199;-71
2022/03/11 03:39:21;;;;;;;38.47;35.10;;;1.80;72.70;;;;;;5092390;28;20227;-71
2022/03/11 03:41:47;;;;;;;39.75;35.90;;;1.80;73.00;;;;;;5092375;28;20261;-71
2022/03/11 03:44:14;;;;;;;39.10;35.75;;;1.80;76.00;;;;;;5092163;28;20198;-71
2022/03/11 03:46:41;;;;;;;37.05;33.83;;;1.80;74.70;;;;;;5092469;28;20196;-71
2022/03/11 03:49:08;;;;;;;36.70;33.70;;;1.70;73.80;;;;;;5092129;28;20287;-71
2022/03/11 03:51:38;;;;;;;38.97;35.80;;;1.80;73.40;;;;;;5092424;28;20309;-71
2022/03/11 03:54:05;;;;;;;39.50;36.45;;;1.80;73.10;;;;;;5092309;28;20245;-71
2022/03/11 03:56:32;;;;;;;39.97;36.55;;;1.70;77.70;;;;;;5092256;28;20285;-71
2022/03/11 03:59:04;;;;;;;40.30;36.60;;;1.70;75.10;;;;;;5092230;28;20554;-71
2022/03/11 04:01:32;;;;;;;38.88;35.47;;;1.70;74.30;;;;;;5092144;28;20297;-71
2022/03/11 04:03:59;;;;;;;40.08;36.40;;;1.70;73.90;;;;;;5092141;28;20208;-71
2022/03/11 04:06:27;;;;;;;43.15;39.40;;;1.70;73.90;;;;;;5092061;28;20216;-71
2022/03/11 04:08:57;;;;;;;40.72;37.42;;;1.70;74.00;;;;;;5091992;28;20203;-71
2022/03/11 04:11:24;;;;;;;42.70;39.20;;;1.70;73.50;;;;;;5094410;28;20224;-71
2022/03/11 04:13:51;;;;;;;42.97;38.90;;;1.70;74.50;;;;;;5095988;28;20196;-71
2022/03/11 04:16:18;;;;;;;40.30;36.90;;;1.70;74.20;;;;;;5095880;28;20207;-71
2022/03/11 04:18:45;;;;;;;42.92;39.10;;;1.70;74.10;;;;;;5095824;28;20202;-71
2022/03/11 04:21:13;;;;;;;41.80;38.30;;;1.90;73.40;;;;;;5095600;28;20228;-71
2022/03/11 04:23:40;;;;;;;42.88;39.22;;;1.90;72.80;;;;;;5095953;28;20262;-71
2022/03/11 04:26:09;;;;;;;40.17;36.85;;;1.80;74.90;;;;;;5095890;28;20226;-71
2022/03/11 04:28:37;;;;;;;40.13;36.70;;;1.70;74.50;;;;;;5095856;28;20717;-71
2022/03/11 04:31:04;;;;;;;41.28;37.90;;;1.80;73.40;;;;;;5095452;28;20285;-70
2022/03/11 04:33:32;;;;;;;43.25;39.55;;;1.70;73.60;;;;;;5095868;28;20642;-71
2022/03/11 04:35:59;;;;;;;42.90;38.90;;;1.70;73.80;;;;;;5095988;28;20252;-70
2022/03/11 04:38:26;;;;;;;42.17;38.47;;;1.70;73.40;;;;;;5095729;28;20200;-70
2022/03/11 04:40:53;;;;;;;42.30;38.80;;;1.70;73.20;;;;;;5095525;28;20198;-70
2022/03/11 04:43:21;;;;;;;42.53;38.83;;;1.70;75.50;;;;;;5095267;28;20215;-71
2022/03/11 04:45:48;;;;;;;42.72;39.00;;;1.70;77.00;;;;;;5095361;28;20199;-70
2022/03/11 04:48:15;;;;;;;42.95;38.95;;;1.70;75.60;;;;;;5095100;28;20389;-70
2022/03/11 04:50:42;;;;;;;43.58;39.58;;;1.70;74.30;;;;;;5095248;28;20579;-71
2022/03/11 04:53:09;;;;;;;41.88;38.55;;;1.60;73.90;;;;;;5095418;28;20223;-71
2022/03/11 04:55:36;;;;;;;43.22;39.72;;;1.70;73.80;;;;;;5095061;28;20213;-71
2022/03/11 04:58:03;;;;;;;44.53;40.60;;;1.60;73.70;;;;;;5094935;28;20546;-71
2022/03/11 05:00:32;;;;;;;41.22;37.63;;;1.60;73.80;;;;;;5094844;28;20295;-71
2022/03/11 05:02:59;;;;;;;43.10;39.47;;;1.60;73.70;;;;;;5095003;28;20783;-70
2022/03/11 05:05:26;;;;;;;42.55;38.95;;;1.50;74.30;;;;;;5095070;28;20249;-71
2022/03/11 05:07:54;;;;;;;42.03;38.10;;;1.50;73.90;;;;;;5094818;28;20204;-71
2022/03/11 05:10:21;;;;;;;41.42;37.83;;;1.40;73.90;;;;;;5094728;28;20196;-71
2022/03/11 05:12:48;;;;;;;43.53;39.83;;;1.40;73.90;;;;;;5094667;28;20303;-71
2022/03/11 05:15:15;;;;;;;42.08;38.38;;;1.40;74.10;;;;;;5094611;28;20582;-71
2022/03/11 05:17:43;;;;;;;43.78;40.15;;;1.30;74.40;;;;;;5094735;28;20746;-71
2022/03/11 05:20:12;;;;;;;42.22;38.22;;;1.20;74.80;;;;;;5094377;28;20207;-71
2022/03/11 05:22:41;;;;;;;43.50;39.75;;;1.20;74.70;;;;;;5094346;28;20299;-71
2022/03/11 05:25:09;;;;;;;42.53;38.53;;;1.30;74.70;;;;;;5094430;28;20238;-70
2022/03/11 05:27:37;;;;;;;45.38;41.13;;;1.30;74.20;;;;;;5094463;28;20552;-71
2022/03/11 05:30:04;;;;;;;43.28;39.53;;;1.20;74.40;;;;;;5094363;28;20282;-71
2022/03/11 05:32:31;;;;;;;46.92;42.75;;;1.20;74.50;;;;;;5094297;28;20308;-70
2022/03/11 05:34:59;;;;;;;43.83;39.80;;;1.20;74.50;;;;;;5094269;28;20214;-71
2022/03/11 05:37:26;;;;;;;45.28;41.20;;;1.20;74.30;;;;;;5094227;28;20202;-71
2022/03/11 05:39:53;;;;;;;43.75;39.95;;;1.30;73.60;;;;;;5094102;28;20227;-70
2022/03/11 05:42:20;;;;;;;42.35;38.50;;;1.20;73.60;;;;;;5094433;28;20213;-70
2022/03/11 05:44:47;;;;;;;42.28;38.58;;;1.10;74.10;;;;;;5093857;28;20188;-70
2022/03/11 05:47:14;;;;;;;42.90;39.08;;;1.20;74.20;;;;;;5094085;28;20284;-70
2022/03/11 05:49:41;;;;;;;42.60;38.90;;;1.20;74.10;;;;;;5093871;28;20239;-70
2022/03/11 05:52:09;;;;;;;42.03;38.35;;;1.20;73.90;;;;;;5093929;28;20312;-70
2022/03/11 05:54:36;;;;;;;42.53;39.15;;;1.20;73.60;;;;;;5093874;28;20196;-70
2022/03/11 05:57:03;;;;;;;41.40;37.63;;;1.20;73.40;;;;;;5094011;28;20197;-70
2022/03/11 05:59:31;;;;;;;43.17;39.20;;;1.20;73.10;;;;;;5093705;28;20276;-70
2022/03/11 06:01:59;;;;;;;43.47;39.53;;;1.20;73.00;;;;;;5093913;28;20273;-70
2022/03/11 06:04:26;;;;;;;40.22;36.72;;;1.20;73.00;;;;;;5093852;28;20203;-70
2022/03/11 06:06:53;;;;;;;39.72;36.42;;;1.20;72.90;;;;;;5093579;28;20704;-70
2022/03/11 06:09:21;;;;;;;41.60;37.90;;;1.20;72.80;;;;;;5093483;28;20197;-70
2022/03/11 06:11:48;;;;;;;41.63;37.92;;;1.20;72.80;;;;;;5094075;28;20767;-70
2022/03/11 06:14:15;;;;;;;42.80;39.13;;;1.40;72.60;;;;;;5093741;28;20193;-70
2022/03/11 06:16:42;;;;;;;38.80;35.38;;;1.40;72.00;;;;;;5093598;28;20219;-70
2022/03/11 06:19:09;;;;;;;42.10;38.50;;;1.40;71.20;;;;;;5093387;28;20194;-70
2022/03/11 06:21:36;;;;;;;44.00;40.00;;;1.30;70.90;;;;;;5093396;28;20272;-70
2022/03/11 06:24:03;;;;;;;41.15;37.55;;;1.40;71.20;;;;;;5093400;28;20203;-70
2022/03/11 06:26:31;;;;;;;40.38;36.95;;;1.40;71.50;;;;;;5093474;28;20287;-70
2022/03/11 06:28:59;;;;;;;42.50;38.70;;;1.50;71.30;;;;;;5093434;28;20578;-70
2022/03/11 06:31:26;;;;;;;42.50;38.90;;;1.60;71.10;;;;;;5093051;28;20227;-70
2022/03/11 06:33:54;;;;;;;41.50;37.80;;;1.60;70.80;;;;;;5092628;28;20662;-70
2022/03/11 06:36:21;;;;;;;40.70;37.10;;;1.60;70.60;;;;;;5093120;28;20223;-70
2022/03/11 06:38:48;;;;;;;39.90;36.20;;;1.70;70.00;;;;;;5093429;28;20287;-70
2022/03/11 06:41:15;;;;;;;39.80;36.40;;;1.70;69.60;;;;;;5093309;28;20282;-70
2022/03/11 06:43:43;;;;;;;41.05;37.70;;;1.80;68.90;;;;;;5093029;28;20201;-70
2022/03/11 06:46:10;;;;;;;39.58;36.22;;;1.80;68.00;;;;;;5093083;28;20192;-71
2022/03/11 06:48:37;;;;;;;41.45;37.90;;;1.80;68.20;;;;;;5092817;28;20658;-70
2022/03/11 06:51:05;;;;;;;38.53;35.13;;;1.90;68.20;;;;;;5092927;28;20197;-70
2022/03/11 06:53:32;;;;;;;37.22;34.20;;;2.00;67.90;;;;;;5093304;28;20573;-70
2022/03/11 06:56:00;;;;;;;39.13;35.92;;;2.10;67.10;;;;;;5092817;28;20587;-70
2022/03/11 06:58:27;;;;;;;38.88;35.40;;;2.20;66.90;;;;;;5092957;28;20200;-70
2022/03/11 07:00:55;;;;;;;34.88;32.00;;;2.30;66.30;;;;;;5092807;28;20207;-70
2022/03/11 07:03:22;;;;;;;37.33;34.28;;;2.30;65.20;;;;;;5092902;28;20548;-70
2022/03/11 07:05:49;;;;;;;36.70;33.28;;;2.40;65.10;;;;;;5092884;28;20193;-70
2022/03/11 07:08:16;;;;;;;35.17;32.17;;;2.50;64.70;;;;;;5092612;28;20216;-70
2022/03/11 07:10:43;;;;;;;34.58;31.35;;;2.50;64.40;;;;;;5092640;28;20236;-70
2022/03/11 07:13:10;;;;;;;33.20;30.40;;;2.70;63.90;;;;;;5092761;28;20230;-70
2022/03/11 07:15:37;;;;;;;34.67;32.00;;;2.80;63.30;;;;;;5092603;28;20221;-70
2022/03/11 07:18:05;;;;;;;35.65;32.75;;;2.90;62.90;;;;;;5092635;28;20285;-70
2022/03/11 07:20:32;;;;;;;33.65;30.77;;;3.00;62.10;;;;;;5092382;28;20210;-70
2022/03/11 07:23:00;;;;;;;34.00;31.25;;;3.10;60.90;;;;;;5092746;28;20213;-70
2022/03/11 07:25:27;;;;;;;34.10;31.30;;;3.00;60.80;;;;;;5092602;28;20193;-70
2022/03/11 07:27:54;;;;;;;32.92;30.38;;;3.00;60.00;;;;;;5092428;28;20200;-71
2022/03/11 07:30:21;;;;;;;32.85;30.45;;;2.90;59.60;;;;;;5092396;28;20285;-70
2022/03/11 07:32:50;;;;;;;32.50;30.20;;;3.10;58.90;;;;;;5092547;28;20299;-70
2022/03/11 07:35:18;;;;;;;32.17;29.60;;;3.30;58.70;;;;;;5092530;28;20209;-70
2022/03/11 07:37:45;;;;;;;33.50;30.98;;;3.40;58.60;;;;;;5092672;28;20280;-70
2022/03/11 07:40:13;;;;;;;31.50;29.40;;;3.50;58.40;;;;;;5092359;28;20205;-70
2022/03/11 07:42:42;;;;;;;33.80;31.15;;;3.60;57.40;;;;;;5092370;28;20309;-70
2022/03/11 07:45:12;;;;;;;33.08;30.58;;;3.70;57.50;;;;;;5094304;28;20201;-71
2022/03/11 07:47:40;;;;;;;34.05;31.35;;;3.80;57.10;;;;;;5096508;28;20659;-70
2022/03/11 07:50:07;;;;;;;32.97;30.88;;;3.90;56.40;;;;;;5095996;28;20640;-70
2022/03/11 07:52:37;;;;;;;31.30;29.10;;;4.00;55.90;;;;;;5096345;28;20222;-70
2022/03/11 07:55:04;;;;;;;33.17;30.10;;;4.00;55.30;;;;;;5096126;28;20259;-70
2022/03/11 07:57:32;;;;;;;34.15;31.55;;;4.10;55.30;;;;;;5096416;28;20202;-70
2022/03/11 08:00:00;;;;;;;32.80;30.52;;;4.30;55.00;;;;;;5095960;28;20570;-70
2022/03/11 08:02:29;;;;;;;33.50;30.75;;;4.40;55.00;;;;;;5096197;28;20318;-71
2022/03/11 08:04:57;;;;;;;34.88;32.58;;;4.50;54.80;;;;;;5096301;28;20206;-71
2022/03/11 08:07:24;;;;;;;32.60;30.25;;;4.60;54.60;;;;;;5095963;28;20209;-70
2022/03/11 08:09:52;;;;;;;34.20;31.70;;;4.80;54.30;;;;;;5095908;28;20202;-70
2022/03/11 08:12:20;;;;;;;30.30;28.08;;;4.90;53.70;;;;;;5095886;28;20308;-70
2022/03/11 08:14:47;;;;;;;33.40;30.88;;;4.90;53.40;;;;;;5095910;28;20268;-71
2022/03/11 08:17:15;;;;;;;32.88;30.42;;;4.90;53.30;;;;;;5095862;28;20218;-71
2022/03/11 08:19:42;;;;;;;35.25;32.75;;;5.00;53.70;;;;;;5095998;28;20674;-71
2022/03/11 08:22:11;;;;;;;35.92;32.70;;;5.10;53.60;;;;;;5095688;28;20696;-70
2022/03/11 08:24:38;;;;;;;33.38;30.58;;;5.20;53.40;;;;;;5095778;28;20208;-71
2022/03/11 08:27:06;;;;;;;30.38;28.15;;;5.30;53.40;;;;;;5095765;28;20256;-71
2022/03/11 08:29:34;;;;;;;32.22;29.70;;;5.40;53.00;;;;;;5095530;28;20227;-71
2022/03/11 08:32:02;;;;;;;34.25;31.52;;;5.40;53.00;;;;;;5095566;28;20224;-70
2022/03/11 08:34:29;;;;;;;32.97;30.48;;;5.50;53.00;;;;;;5095387;28;20541;-71
2022/03/11 08:36:56;;;;;;;32.55;30.23;;;5.70;52.90;;;;;;5095432;28;20225;-71
2022/03/11 08:39:23;;;;;;;32.33;29.85;;;5.70;52.90;;;;;;5095273;28;20297;-71
2022/03/11 08:41:50;;;;;;;31.17;28.85;;;5.80;52.70;;;;;;5095437;28;20569;-70
2022/03/11 08:44:18;;;;;;;31.15;28.70;;;5.80;52.80;;;;;;5095248;28;20202;-71
2022/03/11 08:46:46;;;;;;;33.67;30.83;;;5.90;52.20;;;;;;5095421;28;20199;-71
2022/03/11 08:49:12;;;;;;;29.95;27.65;;;6.00;52.20;;;;;;5094880;28;20286;-71
2022/03/11 08:51:41;;;;;;;31.60;28.88;;;6.10;51.70;;;;;;5095085;28;20294;-71
2022/03/11 08:54:08;;;;;;;32.83;30.23;;;6.20;51.60;;;;;;5095020;28;20203;-70
2022/03/11 08:56:35;;;;;;;33.78;30.88;;;6.20;51.50;;;;;;5094426;28;20309;-71
2022/03/11 08:59:02;;;;;;;33.20;30.55;;;6.30;51.50;;;;;;5094921;28;20287;-71
2022/03/11 09:01:30;;;;;;;35.33;32.55;;;6.40;51.20;;;;;;5094876;28;20303;-71
2022/03/11 09:03:57;;;;;;;39.67;35.95;;;6.60;51.00;;;;;;5094838;28;20199;-70
2022/03/11 09:06:24;;;;;;;36.30;33.30;;;6.60;50.60;;;;;;5094750;28;20198;-71
2022/03/11 09:08:51;;;;;;;34.20;31.67;;;6.60;50.70;;;;;;5094828;28;20232;-71
2022/03/11 09:11:18;;;;;;;33.63;31.13;;;6.70;50.80;;;;;;5094542;28;20277;-71
2022/03/11 09:13:47;;;;;;;33.13;30.38;;;6.80;50.50;;;;;;5094813;28;20205;-71
2022/03/11 09:16:14;;;;;;;33.95;31.40;;;6.90;50.50;;;;;;5094651;28;20218;-71
2022/03/11 09:18:42;;;;;;;32.92;30.25;;;7.00;50.30;;;;;;5094735;28;20275;-71
2022/03/11 09:21:09;;;;;;;32.80;30.50;;;7.10;50.10;;;;;;5094628;28;20196;-70
2022/03/11 09:23:36;;;;;;;34.47;31.83;;;7.10;50.10;;;;;;5094984;28;20201;-71
2022/03/11 09:26:03;;;;;;;32.08;29.67;;;7.20;50.10;;;;;;5094612;28;20199;-70
2022/03/11 09:28:31;;;;;;;31.83;29.52;;;7.30;50.10;;;;;;5094420;28;20298;-71
2022/03/11 09:30:58;;;;;;;34.28;31.77;;;7.30;49.90;;;;;;5094106;28;20598;-71
2022/03/11 09:33:25;;;;;;;34.03;31.52;;;7.30;50.10;;;;;;5094461;28;20614;-71
2022/03/11 09:35:53;;;;;;;32.65;29.60;;;7.40;49.90;;;;;;5094963;28;20196;-71
2022/03/11 09:38:20;;;;;;;32.47;29.73;;;7.60;49.80;;;;;;5094489;28;20192;-70
2022/03/11 09:40:47;;;;;;;31.60;29.40;;;7.70;49.10;;;;;;5094222;28;20201;-70
2022/03/11 09:43:15;;;;;;;32.13;29.73;;;7.70;48.90;;;;;;5094108;28;20224;-70
2022/03/11 09:45:42;;;;;;;33.70;30.77;;;7.80;48.80;;;;;;5094259;28;20210;-70
2022/03/11 09:48:11;;;;;;;31.77;29.55;;;7.90;48.50;;;;;;5094082;28;20197;-70
2022/03/11 09:50:38;;;;;;;31.50;29.20;;;8.00;48.10;;;;;;5093955;28;20199;-70
2022/03/11 09:53:07;;;;;;;31.83;29.83;;;8.20;47.90;;;;;;5094075;28;20219;-70
2022/03/11 09:55:33;;;;;;;32.05;29.73;;;8.30;47.70;;;;;;5093981;28;20201;-70
2022/03/11 09:58:00;;;;;;;32.55;30.10;;;8.40;47.20;;;;;;5093818;28;20225;-71
2022/03/11 10:00:28;;;;;;;33.47;30.63;;;8.40;46.90;;;;;;5093661;28;20203;-70
2022/03/11 10:02:56;;;;;;;34.50;31.85;;;8.60;46.50;;;;;;5093697;28;20573;-70
2022/03/11 10:05:23;;;;;;;32.33;29.55;;;8.60;45.90;;;;;;5093750;28;20202;-70
2022/03/11 10:07:59;;;;;;;33.53;31.25;;;8.40;45.80;;;;;;5092674;28;20290;-70
2022/03/11 10:10:28;;;;;;;33.10;30.92;;;8.40;45.80;;;;;;5093377;28;20205;-70
2022/03/11 10:12:55;;;;;;;31.95;29.73;;;8.50;45.60;;;;;;5093650;28;20586;-70
2022/03/11 10:15:28;;;;;;;32.58;30.17;;;8.50;45.20;;;;;;5093545;28;20199;-70
2022/03/11 10:17:56;;;;;;;29.85;27.85;;;8.60;45.50;;;;;;5093833;28;20311;-70
2022/03/11 10:20:23;;;;;;;32.10;29.70;;;8.70;45.70;;;;;;5093278;28;20196;-70
2022/03/11 10:22:50;;;;;;;32.42;29.98;;;8.80;45.90;;;;;;5093303;28;20216;-70
2022/03/11 10:25:18;;;;;;;32.30;29.50;;;8.90;45.30;;;;;;5093356;28;20226;-70
2022/03/11 10:28:00;;;;;;;30.05;27.92;;;9.00;45.20;;;;;;5093419;28;20733;-70
2022/03/11 10:30:28;;;;;;;31.00;28.90;;;9.10;45.30;;;;;;5093245;28;20198;-70
2022/03/11 10:32:56;;;;;;;30.95;28.55;;;9.20;45.20;;;;;;5093280;28;20220;-70
2022/03/11 10:35:31;;;;;;;32.95;30.65;;;9.20;45.20;;;;;;5093159;28;20287;-70
2022/03/11 10:38:00;;;;;;;32.72;30.20;;;9.30;45.10;;;;;;5093118;28;20692;-70
2022/03/11 10:40:28;;;;;;;33.03;30.52;;;9.40;45.10;;;;;;5093042;28;20573;-70
2022/03/11 10:43:15;;;;;;;31.23;29.02;;;9.60;45.00;;;;;;5092968;28;20247;-70
2022/03/11 10:45:50;;;;;;;32.33;30.02;;;9.70;45.00;;;;;;5093199;28;20249;-70
2022/03/11 10:48:19;;;;;;;31.50;29.02;;;9.70;44.60;;;;;;5092813;28;20193;-70
2022/03/11 10:50:46;;;;;;;34.33;32.03;;;9.70;44.10;;;;;;5092886;28;20204;-70
2022/03/11 10:53:13;;;;;;;32.00;29.60;;;9.80;44.00;;;;;;5092817;28;20229;-70
2022/03/11 10:55:43;;;;;;;32.08;29.85;;;9.90;43.90;;;;;;5093044;28;20201;-71
2022/03/11 10:58:16;;;;;;;31.73;29.60;;;9.80;43.60;;;;;;5092751;28;20319;-70
2022/03/11 11:00:45;;;;;;;32.30;30.10;;;9.70;44.00;;;;;;5092642;28;20249;-71
2022/03/11 11:03:13;;;;;;;33.30;30.73;;;9.70;44.00;;;;;;5093006;28;20228;-71
2022/03/11 11:05:41;;;;;;;33.33;30.90;;;9.70;44.00;;;;;;5093195;28;20626;-72
2022/03/11 11:08:09;;;;;;;32.58;29.83;;;9.90;43.60;;;;;;5092684;28;20204;-71
2022/03/11 11:10:38;;;;;;;33.67;30.80;;;10.00;43.60;;;;;;5092647;28;20554;-71
2022/03/11 11:13:06;;;;;;;31.45;29.15;;;10.10;43.50;;;;;;5092650;28;20220;-71
2022/03/11 11:15:33;;;;;;;32.30;30.00;;;10.20;43.50;;;;;;5092714;28;20540;-71
2022/03/11 11:18:07;;;;;;;34.78;32.05;;;10.30;43.50;;;;;;5092673;28;20228;-71
2022/03/11 11:20:43;;;;;;;33.92;31.42;;;10.40;43.20;;;;;;5092163;28;20200;-71
2022/03/11 11:23:11;;;;;;;34.35;31.75;;;10.60;43.20;;;;;;5092526;28;20779;-71
2022/03/11 11:25:38;;;;;;;32.67;30.07;;;10.80;42.80;;;;;;5092529;28;20618;-71
2022/03/11 11:28:09;;;;;;;34.03;31.20;;;10.90;42.40;;;;;;5092631;28;20795;-71
2022/03/11 11:30:37;;;;;;;33.00;30.60;;;10.90;42.30;;;;;;5092536;28;21038;-71
2022/03/11 11:33:06;;;;;;;34.37;31.73;;;10.90;42.70;;;;;;5092603;28;20485;-71
2022/03/11 11:35:35;;;;;;;37.63;34.47;;;10.70;43.00;;;;;;5092466;28;20462;-71
2022/03/11 11:38:04;;;;;;;32.70;30.17;;;10.90;43.20;;;;;;5092470;28;20575;-72
2022/03/11 11:40:32;;;;;;;32.77;30.50;;;11.10;42.90;;;;;;5092355;28;20961;-71
2022/03/11 11:43:29;;;;;;;35.37;32.30;;;11.20;42.60;;;;;;5092430;28;20474;-71
2022/03/11 11:46:03;;;;;;;35.33;32.63;;;11.30;42.40;;;;;;5092559;28;20491;-71
2022/03/11 11:49:04;;;;;;;35.63;32.83;;;11.50;41.50;;;;;;5092244;28;20457;-72
2022/03/11 11:51:54;;;;;;;33.23;30.80;;;11.30;41.60;;;;;;5092331;28;20809;-72
2022/03/11 11:54:37;;;;;;;34.23;31.70;;;11.30;42.00;;;;;;5092361;28;21007;-72
2022/03/11 11:57:05;;;;;;;34.73;32.23;;;11.40;41.70;;;;;;5092254;28;20478;-72
2022/03/11 11:59:36;;;;;;;34.90;32.20;;;11.40;41.50;;;;;;5092300;28;20447;-71
2022/03/11 12:02:26;;;;;;;33.87;31.63;;;11.50;41.30;;;;;;5092491;28;20569;-72
2022/03/11 12:04:54;;;;;;;35.33;32.53;;;11.60;41.10;;;;;;5092355;28;20823;-71
2022/03/11 12:07:23;;;;;;;33.00;30.70;;;11.70;40.90;;;;;;5092115;28;20458;-72
2022/03/11 12:09:58;;;;;;;34.30;31.80;;;11.60;41.20;;;;;;5092337;28;20458;-71
2022/03/11 12:13:01;;;;;;;34.00;31.50;;;11.60;41.20;;;;;;5092743;28;21030;-72
2022/03/11 12:15:43;;;;;;;34.93;32.30;;;11.60;41.50;;;;;;5092272;28;20493;-72
2022/03/11 12:18:40;;;;;;;35.80;33.00;;;11.70;41.20;;;;;;5089952;28;20546;-72
2022/03/11 12:21:10;;;;;;;35.90;33.20;;;11.80;41.10;;;;;;5092043;28;20454;-72
2022/03/11 12:23:37;;;;;;;34.07;31.50;;;11.70;41.50;;;;;;5092187;28;20509;-72
2022/03/11 12:26:12;;;;;;;33.80;31.27;;;11.70;41.30;;;;;;5092119;28;20522;-72
2022/03/11 12:28:42;;;;;;;33.90;31.40;;;11.90;41.30;;;;;;5092164;28;20858;-71
2022/03/11 12:31:11;;;;;;;34.20;31.60;;;11.90;41.20;;;;;;5092259;28;20482;-71
2022/03/11 12:33:39;;;;;;;35.90;33.13;;;11.70;41.60;;;;;;5095782;28;20443;-71
2022/03/11 12:36:09;;;;;;;35.97;33.07;;;11.80;41.80;;;;;;5095568;28;20934;-71
2022/03/11 12:38:38;;;;;;;33.67;31.17;;;11.90;41.40;;;;;;5095344;28;21000;-71
2022/03/11 12:41:07;;;;;;;35.70;32.97;;;12.00;41.30;;;;;;5095349;28;20454;-71